sensor_id;sensor_type;location;lat;lon;timestamp;pressure;altitude;pressure_sealevel;temperature;humidity
48089;BME280;33867;50.314;7.802;2023-09-19T00:01:43;99697.25;;;18.07;84.41
48089;BME280;33867;50.314;7.802;2023-09-19T00:05:54;99699.78;;;18.28;82.59
48089;BME280;33867;50.314;7.802;2023-09-19T02:43:43;99832.78;;;16.66;83.52
48089;BME280;33867;50.314;7.802;2023-09-19T08:32:46;100116.47;;;20.59;60.32
48089;BME280;33867;50.314;7.802;2023-09-19T08:41:33;100112.28;;;20.63;59.28
48089;BME280;33867;50.314;7.802;2023-09-19T08:45:29;100112.50;;;20.55;57.25
48089;BME280;33867;50.314;7.802;2023-09-19T09:17:41;100128.25;;;20.73;54.00
48089;BME280;33867;50.314;7.802;2023-09-19T09:26:57;100144.53;;;21.51;56.50
48089;BME280;33867;50.314;7.802;2023-09-19T09:30:59;100145.56;;;21.12;54.06
48089;BME280;33867;50.314;7.802;2023-09-19T09:39:51;100135.69;;;21.55;53.76
48089;BME280;33867;50.314;7.802;2023-09-19T09:49:08;100134.66;;;22.31;50.97
48089;BME280;33867;50.314;7.802;2023-09-19T10:02:36;100166.47;;;21.51;49.52
48089;BME280;33867;50.314;7.802;2023-09-19T10:10:58;100162.50;;;21.47;49.24
48089;BME280;33867;50.314;7.802;2023-09-19T10:20:47;100146.47;;;22.32;51.25
48089;BME280;33867;50.314;7.802;2023-09-19T10:34:36;100135.09;;;25.72;43.87
48089;BME280;33867;50.314;7.802;2023-09-19T10:48:24;100104.56;;;23.76;45.14
48089;BME280;33867;50.314;7.802;2023-09-19T10:58:01;100104.50;;;26.24;43.31
48089;BME280;33867;50.314;7.802;2023-09-19T11:02:38;100111.41;;;26.82;41.71
48089;BME280;33867;50.314;7.802;2023-09-19T11:26:49;100099.00;;;28.14;37.77
48089;BME280;33867;50.314;7.802;2023-09-19T11:49:13;100092.41;;;29.20;33.86
48089;BME280;33867;50.314;7.802;2023-09-19T12:28:21;100072.06;;;27.67;36.72
48089;BME280;33867;50.314;7.802;2023-09-19T12:38:27;100084.03;;;28.10;34.62
48089;BME280;33867;50.314;7.802;2023-09-19T12:42:55;100080.16;;;27.47;36.14
48089;BME280;33867;50.314;7.802;2023-09-19T12:46:53;100065.84;;;27.01;36.54
48089;BME280;33867;50.314;7.802;2023-09-19T13:01:33;100060.00;;;26.20;39.46
48089;BME280;33867;50.314;7.802;2023-09-19T13:05:16;100051.81;;;27.35;36.97
48089;BME280;33867;50.314;7.802;2023-09-19T13:13:28;100050.69;;;27.63;36.75
48089;BME280;33867;50.314;7.802;2023-09-19T13:39:25;100038.44;;;28.18;35.39
48089;BME280;33867;50.314;7.802;2023-09-19T13:53:03;100014.72;;;28.95;34.88
48089;BME280;33867;50.314;7.802;2023-09-19T13:57:00;100025.03;;;28.47;32.04
48089;BME280;33867;50.314;7.802;2023-09-19T14:11:25;100008.81;;;28.18;35.53
48089;BME280;33867;50.314;7.802;2023-09-19T14:23:48;99992.94;;;27.66;35.48
48089;BME280;33867;50.314;7.802;2023-09-19T14:28:15;99986.13;;;27.47;34.17
48089;BME280;33867;50.314;7.802;2023-09-19T14:42:01;99982.03;;;25.41;34.34
48089;BME280;33867;50.314;7.802;2023-09-19T14:46:14;99971.91;;;25.97;37.49
48089;BME280;33867;50.314;7.802;2023-09-19T14:49:42;99967.28;;;26.03;36.61
48089;BME280;33867;50.314;7.802;2023-09-19T14:53:36;99959.88;;;25.19;36.19
48089;BME280;33867;50.314;7.802;2023-09-19T14:57:43;99952.88;;;25.28;37.87
48089;BME280;33867;50.314;7.802;2023-09-19T15:01:42;99954.38;;;25.19;36.45
48089;BME280;33867;50.314;7.802;2023-09-19T15:05:42;99970.91;;;25.19;37.79
48089;BME280;33867;50.314;7.802;2023-09-19T15:09:44;99967.06;;;25.20;37.10
48089;BME280;33867;50.314;7.802;2023-09-19T15:13:19;99956.88;;;25.04;36.88
48089;BME280;33867;50.314;7.802;2023-09-19T15:17:06;99978.78;;;24.70;37.45
48089;BME280;33867;50.314;7.802;2023-09-19T15:20:33;99964.16;;;24.53;38.65
48089;BME280;33867;50.314;7.802;2023-09-19T15:24:01;99966.97;;;24.58;39.40
48089;BME280;33867;50.314;7.802;2023-09-19T15:27:42;99970.44;;;24.65;39.64
48089;BME280;33867;50.314;7.802;2023-09-19T15:31:24;99962.03;;;24.32;39.72
48089;BME280;33867;50.314;7.802;2023-09-19T15:35:37;99962.25;;;24.42;39.90
48089;BME280;33867;50.314;7.802;2023-09-19T15:39:30;99964.31;;;24.35;40.34
48089;BME280;33867;50.314;7.802;2023-09-19T15:42:56;99960.38;;;24.31;39.34
48089;BME280;33867;50.314;7.802;2023-09-19T15:46:15;99962.50;;;24.40;41.46
48089;BME280;33867;50.314;7.802;2023-09-19T15:49:35;99963.59;;;24.68;41.16
48089;BME280;33867;50.314;7.802;2023-09-19T15:52:54;99963.69;;;24.44;39.83
48089;BME280;33867;50.314;7.802;2023-09-19T15:56:17;99949.75;;;24.63;40.45
48089;BME280;33867;50.314;7.802;2023-09-19T15:59:40;99947.78;;;24.35;40.61
48089;BME280;33867;50.314;7.802;2023-09-19T16:03:00;99952.59;;;24.28;41.49
48089;BME280;33867;50.314;7.802;2023-09-19T16:06:24;99953.94;;;23.90;42.44
48089;BME280;33867;50.314;7.802;2023-09-19T16:09:47;99945.84;;;23.83;42.33
48089;BME280;33867;50.314;7.802;2023-09-19T16:13:09;99944.03;;;23.66;42.85
48089;BME280;33867;50.314;7.802;2023-09-19T16:16:29;99937.94;;;23.75;42.53
48089;BME280;33867;50.314;7.802;2023-09-19T16:19:53;99942.06;;;23.31;43.92
48089;BME280;33867;50.314;7.802;2023-09-19T16:23:13;99936.19;;;23.16;45.14
48089;BME280;33867;50.314;7.802;2023-09-19T16:26:33;99938.19;;;23.09;45.64
48089;BME280;33867;50.314;7.802;2023-09-19T16:29:53;99942.72;;;22.91;45.25
48089;BME280;33867;50.314;7.802;2023-09-19T16:33:21;99947.00;;;22.69;45.88
48089;BME280;33867;50.314;7.802;2023-09-19T16:37:24;99950.91;;;22.61;45.60
48089;BME280;33867;50.314;7.802;2023-09-19T16:41:08;99952.56;;;22.51;46.60
48089;BME280;33867;50.314;7.802;2023-09-19T16:44:35;99959.94;;;22.50;46.99
48089;BME280;33867;50.314;7.802;2023-09-19T16:48:47;99959.22;;;22.06;47.68
48089;BME280;33867;50.314;7.802;2023-09-19T16:52:22;99949.84;;;22.14;47.59
48089;BME280;33867;50.314;7.802;2023-09-19T16:56:19;99948.50;;;21.80;47.28
48089;BME280;33867;50.314;7.802;2023-09-19T17:00:05;99944.47;;;21.82;48.03
48089;BME280;33867;50.314;7.802;2023-09-19T17:03:35;99955.53;;;21.94;48.39
48089;BME280;33867;50.314;7.802;2023-09-19T17:06:57;99959.31;;;21.93;49.26
48089;BME280;33867;50.314;7.802;2023-09-19T17:10:33;99965.16;;;21.78;47.98
48089;BME280;33867;50.314;7.802;2023-09-19T17:14:05;99970.47;;;21.55;50.29
48089;BME280;33867;50.314;7.802;2023-09-19T17:17:33;99963.47;;;21.59;50.40
48089;BME280;33867;50.314;7.802;2023-09-19T17:20:59;99966.44;;;21.33;52.30
48089;BME280;33867;50.314;7.802;2023-09-19T17:24:22;99965.69;;;20.87;51.76
48089;BME280;33867;50.314;7.802;2023-09-19T17:27:51;99962.75;;;20.82;53.94
48089;BME280;33867;50.314;7.802;2023-09-19T17:34:56;99968.59;;;20.54;52.83
48089;BME280;33867;50.314;7.802;2023-09-19T17:38:18;99973.69;;;20.37;54.80
48089;BME280;33867;50.314;7.802;2023-09-19T17:41:45;99970.84;;;19.99;57.59
48089;BME280;33867;50.314;7.802;2023-09-19T17:45:13;99972.56;;;19.94;57.29
48089;BME280;33867;50.314;7.802;2023-09-19T17:48:56;99970.91;;;19.46;59.36
48089;BME280;33867;50.314;7.802;2023-09-19T17:52:16;99988.56;;;19.50;59.11
48089;BME280;33867;50.314;7.802;2023-09-19T17:55:56;99983.31;;;19.09;61.44
48089;BME280;33867;50.314;7.802;2023-09-19T17:59:16;99978.88;;;19.41;60.02
48089;BME280;33867;50.314;7.802;2023-09-19T18:02:38;99978.88;;;19.28;59.89
48089;BME280;33867;50.314;7.802;2023-09-19T18:05:58;99978.50;;;19.31;60.57
48089;BME280;33867;50.314;7.802;2023-09-19T18:09:17;99993.16;;;19.17;60.58
48089;BME280;33867;50.314;7.802;2023-09-19T18:12:37;99989.41;;;19.31;60.80
48089;BME280;33867;50.314;7.802;2023-09-19T18:16:07;99993.97;;;18.84;61.19
48089;BME280;33867;50.314;7.802;2023-09-19T18:19:30;100000.50;;;18.96;61.88
48089;BME280;33867;50.314;7.802;2023-09-19T18:22:55;100005.72;;;19.05;62.12
48089;BME280;33867;50.314;7.802;2023-09-19T18:26:15;99999.22;;;18.99;61.66
48089;BME280;33867;50.314;7.802;2023-09-19T18:29:37;100001.50;;;18.89;62.49
48089;BME280;33867;50.314;7.802;2023-09-19T18:33:01;100003.44;;;18.95;61.76
48089;BME280;33867;50.314;7.802;2023-09-19T18:36:21;100000.78;;;18.60;63.11
48089;BME280;33867;50.314;7.802;2023-09-19T18:39:43;100003.47;;;18.54;63.54
48089;BME280;33867;50.314;7.802;2023-09-19T18:43:10;100020.31;;;18.64;62.94
48089;BME280;33867;50.314;7.802;2023-09-19T18:46:31;100002.53;;;18.33;64.60
48089;BME280;33867;50.314;7.802;2023-09-19T18:49:54;100013.00;;;18.23;64.57
48089;BME280;33867;50.314;7.802;2023-09-19T18:53:17;100014.75;;;18.44;62.99
48089;BME280;33867;50.314;7.802;2023-09-19T18:56:41;100002.16;;;18.43;63.85
48089;BME280;33867;50.314;7.802;2023-09-19T19:00:04;100015.19;;;18.48;63.12
48089;BME280;33867;50.314;7.802;2023-09-19T19:03:27;100007.53;;;18.23;63.85
48089;BME280;33867;50.314;7.802;2023-09-19T19:06:49;100005.81;;;18.22;64.27
48089;BME280;33867;50.314;7.802;2023-09-19T19:10:11;100013.78;;;17.61;67.05
48089;BME280;33867;50.314;7.802;2023-09-19T19:13:32;100017.69;;;17.73;66.55
48089;BME280;33867;50.314;7.802;2023-09-19T19:16:51;100017.00;;;17.93;65.60
48089;BME280;33867;50.314;7.802;2023-09-19T19:20:15;100017.31;;;17.76;66.29
48089;BME280;33867;50.314;7.802;2023-09-19T19:23:36;100024.63;;;17.76;66.36
48089;BME280;33867;50.314;7.802;2023-09-19T19:26:56;100009.91;;;17.70;66.67
48089;BME280;33867;50.314;7.802;2023-09-19T19:30:18;100021.28;;;17.52;66.73
48089;BME280;33867;50.314;7.802;2023-09-19T19:33:40;100027.69;;;17.45;67.95
48089;BME280;33867;50.314;7.802;2023-09-19T19:36:59;100018.63;;;17.38;67.18
48089;BME280;33867;50.314;7.802;2023-09-19T19:40:19;100019.41;;;17.53;66.74
48089;BME280;33867;50.314;7.802;2023-09-19T19:43:38;100024.69;;;17.61;66.42
48089;BME280;33867;50.314;7.802;2023-09-19T19:47:00;100031.16;;;17.60;67.17
48089;BME280;33867;50.314;7.802;2023-09-19T19:50:20;100030.66;;;17.50;66.86
48089;BME280;33867;50.314;7.802;2023-09-19T19:53:40;100031.66;;;17.42;67.13
48089;BME280;33867;50.314;7.802;2023-09-19T19:56:59;100030.09;;;17.54;66.57
48089;BME280;33867;50.314;7.802;2023-09-19T20:00:18;100040.78;;;17.56;66.61
48089;BME280;33867;50.314;7.802;2023-09-19T20:03:38;100034.22;;;17.50;66.90
48089;BME280;33867;50.314;7.802;2023-09-19T20:06:58;100038.88;;;17.57;65.88
48089;BME280;33867;50.314;7.802;2023-09-19T20:10:18;100030.41;;;17.45;67.65
48089;BME280;33867;50.314;7.802;2023-09-19T20:13:43;100030.94;;;17.55;66.49
48089;BME280;33867;50.314;7.802;2023-09-19T20:17:05;100019.41;;;17.32;67.63
48089;BME280;33867;50.314;7.802;2023-09-19T20:20:38;100024.03;;;17.59;66.68
48089;BME280;33867;50.314;7.802;2023-09-19T20:24:04;100022.91;;;17.25;69.67
48089;BME280;33867;50.314;7.802;2023-09-19T20:27:24;100021.09;;;17.33;68.66
48089;BME280;33867;50.314;7.802;2023-09-19T20:30:43;100027.38;;;17.33;68.56
48089;BME280;33867;50.314;7.802;2023-09-19T20:34:03;100031.59;;;17.36;68.81
48089;BME280;33867;50.314;7.802;2023-09-19T20:37:22;100035.34;;;17.13;69.71
48089;BME280;33867;50.314;7.802;2023-09-19T20:40:42;100033.41;;;17.07;69.39
48089;BME280;33867;50.314;7.802;2023-09-19T20:44:02;100033.38;;;17.50;67.84
48089;BME280;33867;50.314;7.802;2023-09-19T20:47:21;100029.47;;;17.59;67.20
48089;BME280;33867;50.314;7.802;2023-09-19T20:50:41;100027.81;;;17.37;68.71
48089;BME280;33867;50.314;7.802;2023-09-19T20:54:00;100025.75;;;17.39;69.03
48089;BME280;33867;50.314;7.802;2023-09-19T20:57:20;100026.97;;;17.36;68.66
48089;BME280;33867;50.314;7.802;2023-09-19T21:00:40;100030.31;;;17.32;68.89
48089;BME280;33867;50.314;7.802;2023-09-19T21:04:01;100038.66;;;17.30;68.38
48089;BME280;33867;50.314;7.802;2023-09-19T21:07:22;100033.78;;;17.25;69.22
48089;BME280;33867;50.314;7.802;2023-09-19T21:10:42;100035.88;;;17.23;68.68
48089;BME280;33867;50.314;7.802;2023-09-19T21:14:02;100038.19;;;17.27;68.59
48089;BME280;33867;50.314;7.802;2023-09-19T21:17:22;100034.06;;;17.31;68.61
48089;BME280;33867;50.314;7.802;2023-09-19T21:20:42;100027.16;;;16.92;70.20
48089;BME280;33867;50.314;7.802;2023-09-19T21:24:01;100030.16;;;16.46;73.27
48089;BME280;33867;50.314;7.802;2023-09-19T21:27:21;100028.53;;;16.81;72.34
48089;BME280;33867;50.314;7.802;2023-09-19T21:30:40;100021.88;;;16.84;70.99
48089;BME280;33867;50.314;7.802;2023-09-19T21:34:00;100022.00;;;16.97;71.62
48089;BME280;33867;50.314;7.802;2023-09-19T21:37:19;100017.13;;;17.14;70.65
48089;BME280;33867;50.314;7.802;2023-09-19T21:40:41;100021.22;;;17.03;70.18
48089;BME280;33867;50.314;7.802;2023-09-19T21:44:03;100022.25;;;17.23;70.71
48089;BME280;33867;50.314;7.802;2023-09-19T21:47:32;100019.34;;;17.04;70.93
48089;BME280;33867;50.314;7.802;2023-09-19T21:50:53;100013.50;;;17.28;70.18
48089;BME280;33867;50.314;7.802;2023-09-19T21:54:19;100016.16;;;16.64;73.50
48089;BME280;33867;50.314;7.802;2023-09-19T21:57:38;100020.78;;;17.00;71.26
48089;BME280;33867;50.314;7.802;2023-09-19T22:00:58;100019.97;;;17.27;69.93
48089;BME280;33867;50.314;7.802;2023-09-19T22:04:21;100017.97;;;17.36;70.60
48089;BME280;33867;50.314;7.802;2023-09-19T22:07:41;100019.09;;;17.41;69.75
48089;BME280;33867;50.314;7.802;2023-09-19T22:11:03;100019.13;;;17.48;69.39
48089;BME280;33867;50.314;7.802;2023-09-19T22:14:27;100027.06;;;17.21;70.91
48089;BME280;33867;50.314;7.802;2023-09-19T22:17:49;100019.13;;;17.48;70.73
48089;BME280;33867;50.314;7.802;2023-09-19T22:21:12;100016.72;;;17.60;69.07
48089;BME280;33867;50.314;7.802;2023-09-19T22:24:43;100020.06;;;17.34;71.27
48089;BME280;33867;50.314;7.802;2023-09-19T22:28:11;100010.81;;;17.56;69.40
48089;BME280;33867;50.314;7.802;2023-09-19T22:31:31;100020.25;;;17.53;69.98
48089;BME280;33867;50.314;7.802;2023-09-19T22:34:54;100015.25;;;17.64;68.80
48089;BME280;33867;50.314;7.802;2023-09-19T22:38:17;100014.13;;;17.51;70.91
48089;BME280;33867;50.314;7.802;2023-09-19T22:41:39;100012.53;;;17.36;71.33
48089;BME280;33867;50.314;7.802;2023-09-19T22:45:03;100015.44;;;17.56;70.99
48089;BME280;33867;50.314;7.802;2023-09-19T22:48:31;100012.09;;;17.60;71.32
48089;BME280;33867;50.314;7.802;2023-09-19T22:51:50;99999.50;;;17.52;70.10
48089;BME280;33867;50.314;7.802;2023-09-19T22:55:10;99988.13;;;16.78;74.87
48089;BME280;33867;50.314;7.802;2023-09-19T22:58:30;99990.13;;;17.34;71.37
48089;BME280;33867;50.314;7.802;2023-09-19T23:01:50;99986.25;;;17.21;72.55
48089;BME280;33867;50.314;7.802;2023-09-19T23:05:11;99978.94;;;17.50;70.57
48089;BME280;33867;50.314;7.802;2023-09-19T23:08:34;99984.25;;;17.58;70.70
48089;BME280;33867;50.314;7.802;2023-09-19T23:11:54;99987.28;;;17.42;71.56
48089;BME280;33867;50.314;7.802;2023-09-19T23:15:14;99984.94;;;17.67;69.98
48089;BME280;33867;50.314;7.802;2023-09-19T23:18:37;99989.47;;;17.60;70.30
48089;BME280;33867;50.314;7.802;2023-09-19T23:21:59;99986.56;;;17.61;70.19
48089;BME280;33867;50.314;7.802;2023-09-19T23:25:37;99986.56;;;17.61;70.52
48089;BME280;33867;50.314;7.802;2023-09-19T23:29:05;99985.94;;;17.59;70.15
48089;BME280;33867;50.314;7.802;2023-09-19T23:32:28;99987.91;;;17.44;70.85
48089;BME280;33867;50.314;7.802;2023-09-19T23:35:47;99992.44;;;17.37;71.20
48089;BME280;33867;50.314;7.802;2023-09-19T23:39:07;99995.13;;;17.30;72.03
48089;BME280;33867;50.314;7.802;2023-09-19T23:42:40;100000.69;;;17.22;72.63
48089;BME280;33867;50.314;7.802;2023-09-19T23:46:00;99999.22;;;17.19;72.59
48089;BME280;33867;50.314;7.802;2023-09-19T23:49:23;99997.97;;;17.22;72.13
48089;BME280;33867;50.314;7.802;2023-09-19T23:52:43;100000.78;;;17.29;72.58
48089;BME280;33867;50.314;7.802;2023-09-19T23:56:03;99999.72;;;17.30;71.92
48089;BME280;33867;50.314;7.802;2023-09-19T23:59:31;100003.09;;;17.32;71.67
